Edenville, Michigan
Current Conditions -  °F | °C
As of 4:54 AM on Sunday 21 Dec 2014 (Local Time) from KIKW Reporting Station
Overcast Overcast  
Wind Chill: 28°   Ceiling: 2500
Heat Index: 28°   Visibility: 7mi
Dew Point: 26°   Wind: 0mph
Humidity: 94%   Direction: NA
Pressure: 30.26"   Gusts: NA
Location:  43.8°N, 84.38°W
Report Text: KIKW 210954Z AUTO 00000KT 7SM OVC025 M02/M03 A3026 RMK AO2 T10231031
Loading
Personal Weather Stations






























Interactive Weather Map New forecast layout! Learn more

10-Day Weather Forecast

Advertisements
Track Severe Weather on mobile